Port Sulphur, LA (70083)

8:47 PM CDT on April 26, 2017 (GMT -0500)
Crescent Excavation | | Change Station

Elev -3 ft 29.66 °N, 90.00 °W | Updated 10 seconds ago

Mostly Cloudy
Mostly Cloudy
76.4 °F
Feels Like 77 °F
N
13.0
Wind Variable Wind from SSW
Gusts 17.0 mph

Today
High -- | Low -- °F
--% Chance of Precip.
Yesterday
High -- | Low -- °F
Precip. -- in
Pressure 29.68 in
Visibility 7.0 miles
Clouds Few 600 ft
Overcast 1500 ft
Heat Index 77 °F
Dew Point 74 °F
Humidity 93%
Rainfall 0.00 in
Snow Depth Not available.
6:21 AM 7:32 PM
New Moon, 0% visible
SPECI KBVE 270129Z AUTO 15010KT 7SM FEW006 OVC015 24/23 A2968 RMK AO2 T02390233
Pressure 29.68 in
Visibility 7.0 miles
Clouds Few 600 ft
Overcast 1500 ft
Heat Index 77 °F
Dew Point 74 °F
Humidity 93%
Rainfall 0.00 in
Snow Depth Not available.
6:21 AM 7:32 PM
New Moon, 0% visible
SPECI KBVE 270129Z AUTO 15010KT 7SM FEW006 OVC015 24/23 A2968 RMK AO2 T02390233

Get Severe Weather Alerts

Thanks for signing up!

Be on the lookout for a verification email in your inbox.

You'll start receiving the daily forecast at 8 AM.

×

10-Day Weather Forecast

Almanac

Astronomy

Apr. 26, 2017 Rise Set
Actual Time
Civil Twilight
Nautical Twilight
Astronomical Twilight
Moon
Length of Visible Light
Length of Day
Tomorrow will be .
, % of the Moon is Illuminated

Today's Extremes

State Highs State Lows

Community

WunderPhotos

WunderBlog® & News

Nearby

Air Quality

  Air Quality AQ Index Pollutant
Not available.

Snow Depth

Station Depth Elevation

Earthquake Activity

City Distance Mag. Time & Date
Minimum magnitude displayed is 2.5.

Coastal Water Temperatures

Place Temperature

Stations

Nearby Weather Stations

Station Location Temp. Windchill Dew Point Humidity Wind Precip. Elev Updated Type
                   

Watches & Warnings

There are currently no watches in effect.